Terminal Aerodrome Forecast
Issued by NWS

Home | Current Version | Previous Version | Text Only | Print | Product List | Glossary On
Versions: 1 2 3 4 5 6 7 8 9 10 11 12 13 14 15 16 17 18 19 20 21 22 23
168
FTUS41 KOKX 240540
TAFSWF
TAF
KSWF 240540Z 2406/2512 VRB03KT 6SM -RA OVC050
     FM241000 35005KT 4SM -RA BR BKN015
     FM241600 VRB04KT P6SM VCSH BKN025
     FM241900 VRB04KT P6SM VCSH FEW030 BKN060
     FM250000 VRB04KT P6SM SCT120
     FM250800 00000KT 4SM BR SKC
      AMD NOT SKED=

USA.gov is the U.S. government's official web portal to all federal, state and local government web resources and services.